Bookmark and Share
Track history (hours):
 

Normed Antwerpen

Last reported at 2014-Apr-18 01:21 UTC. Time now 2014-Apr-20 11:40 UTC.
Position N 50°21' W 001°37'.

Length 130 m; draft 6.2 m.

Type: Ship. MMSI: 305210993.

NotesDate/timePositionNaut miles runAvg speedWind from/ knotsBaromVisibWave heightAir tempDewpointWater temp
2014-Apr-18 01:21N 50°21' W 001°37'1113.8
2014-Apr-18 00:32N 50°25' W 001°21'1212.3
2014-Apr-17 23:33N 50°31' W 001°05'1111.1
2014-Apr-17 22:33N 50°41' W 000°57'1212.1
2014-Apr-17 21:34N 50°46' W 001°14'9 9.3
2014-Apr-17 20:33N 50°53' W 001°24'2 2.0
2014-Apr-17 19:31N 50°54' W 001°26'0 0.0
2014-Apr-17 18:31N 50°54' W 001°26'0 0.0
2014-Apr-17 17:33N 50°54' W 001°26'0 0.0
2014-Apr-17 16:33N 50°54' W 001°26'0 0.0
2014-Apr-17 15:33N 50°54' W 001°26'0 0.0
2014-Apr-17 14:29N 50°54' W 001°26'0 0.0
2014-Apr-17 13:32N 50°54' W 001°26'0 0.0
2014-Apr-17 12:31N 50°54' W 001°26'0 0.0
2014-Apr-17 11:31N 50°54' W 001°26'0 0.0
2014-Apr-17 10:33N 50°54' W 001°26'0 0.0
2014-Apr-17 09:33N 50°54' W 001°26'0 0.0
2014-Apr-17 08:30N 50°54' W 001°26'0 0.0
2014-Apr-17 07:29N 50°54' W 001°26'0 0.0
2014-Apr-17 06:32N 50°54' W 001°26'0 0.0
2014-Apr-17 05:31N 50°54' W 001°26'0 0.0
2014-Apr-17 04:25N 50°54' W 001°26'0 0.0
2014-Apr-17 03:33N 50°54' W 001°26'0 0.0
2014-Apr-17 02:24N 50°54' W 001°26'0 0.0
2014-Apr-17 01:33N 50°54' W 001°26'0 0.0
2014-Apr-17 00:17N 50°54' W 001°26'0 0.0
2014-Apr-16 23:32N 50°54' W 001°26'0 0.0
2014-Apr-16 22:32N 50°54' W 001°26'0 0.0
2014-Apr-16 21:28N 50°54' W 001°26'0 0.0
2014-Apr-16 20:33N 50°54' W 001°26'0 0.0
2014-Apr-16 19:33N 50°54' W 001°26'0 0.0
2014-Apr-16 18:33N 50°54' W 001°26'0 0.0
2014-Apr-16 17:29N 50°54' W 001°26'0 0.0
2014-Apr-16 16:29N 50°54' W 001°26'0 0.0
2014-Apr-16 15:28N 50°54' W 001°26'0 0.0
2014-Apr-16 14:31N 50°54' W 001°26'0 0.0
2014-Apr-16 13:28N 50°54' W 001°26'0 0.1
2014-Apr-16 12:33N 50°54' W 001°26'5 5.2
2014-Apr-16 11:33N 50°51' W 001°20'9 9.5
2014-Apr-16 10:34N 50°46' W 001°08'1110.6
2014-Apr-16 09:33N 50°38' W 000°56'1110.9
2014-Apr-16 08:33N 50°36' W 000°39'1211.5
2014-Apr-16 07:33N 50°34' W 000°21'1312.7
2014-Apr-16 06:31N 50°33' W 000°01'1414.2
2014-Apr-16 05:33N 50°35' E 000°20'1514.6
2014-Apr-16 04:33N 50°41' E 000°42'1414.2
2014-Apr-16 03:33N 50°50' E 000°60'2512.3
2014-Apr-16 01:33N 51°05' E 001°30'1010.4
2014-Apr-16 00:34N 51°12' E 001°42'1111.4
2014-Apr-15 23:33N 51°22' E 001°52'1413.8
2014-Apr-15 22:34N 51°33' E 002°06'1515.0
2014-Apr-15 21:33N 51°44' E 002°22'8713.6
2014-Apr-15 15:09N 52°52' E 003°50'712.0
2014-Apr-15 14:33N 52°58' E 003°58'13 6.5
2014-Apr-15 12:33N 53°06' E 004°14'4113.7
2014-Apr-15 09:34N 53°35' E 005°03'1312.8
2014-Apr-15 08:34N 53°38' E 005°24'1212.4
2014-Apr-15 07:34N 53°43' E 005°43'1111.5
2014-Apr-15 06:33N 53°47' E 006°01'4110.3
2014-Apr-15 02:33N 53°56' E 007°09'1312.7
2014-Apr-15 01:33N 53°58' E 007°31'8 7.6
2014-Apr-15 00:33N 53°56' E 007°43'7 7.3
2014-Apr-14 23:33N 53°52' E 007°54'1110.8
2014-Apr-14 22:34N 53°47' E 008°09'9 9.2
2014-Apr-14 21:34N 53°41' E 008°22'9 9.3
2014-Apr-14 20:34N 53°34' E 008°32'7 7.4
2014-Apr-14 19:34N 53°27' E 008°30'20 9.8
2014-Apr-14 17:34N 53°08' E 008°38'4 4.0
2014-Apr-14 16:32N 53°06' E 008°44'0 0.0
2014-Apr-14 15:31N 53°06' E 008°44'0 0.0
2014-Apr-14 14:31N 53°06' E 008°44'0 0.0
2014-Apr-14 13:33N 53°06' E 008°44'0 0.0
2014-Apr-14 11:32N 53°06' E 008°44'0 0.0
2014-Apr-14 10:32N 53°06' E 008°44'0 0.0
2014-Apr-14 09:32N 53°06' E 008°44'0 0.0
2014-Apr-14 08:31N 53°06' E 008°44'0 0.0
2014-Apr-14 07:31N 53°06' E 008°44'0 0.0
2014-Apr-14 06:33N 53°06' E 008°44'0 0.0
2014-Apr-14 05:33N 53°06' E 008°44'0 0.0
2014-Apr-13 22:32N 53°06' E 008°44'0 0.0
2014-Apr-13 21:32N 53°06' E 008°44'0 0.0
2014-Apr-13 20:28N 53°06' E 008°44'0 0.0
2014-Apr-13 19:31N 53°06' E 008°44'0 0.0
2014-Apr-13 18:31N 53°06' E 008°44'0 0.0
2014-Apr-13 17:30N 53°06' E 008°44'0 0.0
2014-Apr-13 16:33N 53°06' E 008°44'0 0.0
2014-Apr-13 15:32N 53°06' E 008°44'0 0.0
2014-Apr-13 14:32N 53°06' E 008°44'0 0.0
2014-Apr-13 13:31N 53°06' E 008°44'0 0.0
2014-Apr-13 12:31N 53°06' E 008°44'0 0.0
2014-Apr-13 11:31N 53°06' E 008°44'0 0.0
2014-Apr-13 10:33N 53°06' E 008°44'0 0.0
2014-Apr-13 09:33N 53°06' E 008°44'0 0.0
2014-Apr-13 08:32N 53°06' E 008°44'0 0.0
2014-Apr-13 07:32N 53°06' E 008°44'0 0.0
2014-Apr-13 06:31N 53°06' E 008°44'0 0.0
2014-Apr-13 05:31N 53°06' E 008°44'0 0.0
2014-Apr-13 04:31N 53°06' E 008°44'0 0.0
2014-Apr-13 03:33N 53°06' E 008°44'0 0.0
2014-Apr-13 02:33N 53°06' E 008°44'0 0.0
2014-Apr-13 01:32N 53°06' E 008°44'0 0.0
2014-Apr-13 00:32N 53°06' E 008°44'0 0.0
2014-Apr-12 23:31N 53°06' E 008°44'0 0.0
2014-Apr-12 22:31N 53°06' E 008°44'0 0.0
2014-Apr-12 21:34N 53°06' E 008°44'0 0.0
2014-Apr-12 20:33N 53°06' E 008°44'3 3.3
2014-Apr-12 19:33N 53°08' E 008°40'9 9.3
2014-Apr-12 18:33N 53°14' E 008°29'1010.4
2014-Apr-12 17:33N 53°25' E 008°30'9 9.1
2014-Apr-12 16:33N 53°34' E 008°33'1111.1
2014-Apr-12 15:33N 53°42' E 008°20'1110.8
2014-Apr-12 14:33N 53°49' E 008°06'1111.0
2014-Apr-12 13:33N 53°53' E 007°49'1211.5
2014-Apr-12 12:33N 53°54' E 007°29'1110.9
2014-Apr-12 11:33N 53°51' E 007°11'3811.6
2014-Apr-12 08:15N 53°42' E 006°08'912.9
2014-Apr-12 07:33N 53°39' E 005°54'1414.2
2014-Apr-12 06:34N 53°35' E 005°31'1414.3
2014-Apr-12 05:34N 53°30' E 005°08'1515.0
2014-Apr-12 04:34N 53°24' E 004°46'1514.5
2014-Apr-12 03:32N 53°11' E 004°34'1514.8
2014-Apr-12 02:33N 52°59' E 004°21'1414.6
2014-Apr-12 01:33N 52°46' E 004°08'1514.6
2014-Apr-12 00:33N 52°35' E 003°52'1414.4
2014-Apr-11 23:33N 52°25' E 003°36'1413.7
2014-Apr-11 22:32N 52°11' E 003°29'1313.4
2014-Apr-11 21:33N 51°59' E 003°24'1212.5
2014-Apr-11 20:33N 51°47' E 003°17'9 8.9
2014-Apr-11 19:33N 51°38' E 003°21'1010.3
2014-Apr-11 18:33N 51°30' E 003°29'7 7.3
2014-Apr-11 17:34N 51°26' E 003°40'1110.5
2014-Apr-11 16:33N 51°22' E 003°55'9 9.0
2014-Apr-11 15:33N 51°23' E 004°10'5 5.2
2014-Apr-11 14:33N 51°21' E 004°17'0 0.4
2014-Apr-11 13:33N 51°21' E 004°18'4 3.7
2014-Apr-11 12:33N 51°17' E 004°20'1 0.6
2014-Apr-11 11:27N 51°17' E 004°21'0 0.0
2014-Apr-11 10:29N 51°17' E 004°21'0 0.0
2014-Apr-11 09:32N 51°17' E 004°21'0 0.0
2014-Apr-11 08:32N 51°17' E 004°21'0 0.0
2014-Apr-11 07:32N 51°17' E 004°21'0 0.0
2014-Apr-11 06:32N 51°17' E 004°21'0 0.0
2014-Apr-11 05:31N 51°17' E 004°21'0 0.0
2014-Apr-11 04:28N 51°17' E 004°21'0 0.0
2014-Apr-11 03:28N 51°17' E 004°21'0 0.0
2014-Apr-11 02:33N 51°17' E 004°21'0 0.0
2014-Apr-11 01:33N 51°17' E 004°21'0 0.0
2014-Apr-11 00:32N 51°17' E 004°21'0 0.0
2014-Apr-10 23:32N 51°17' E 004°21'0 0.0
2014-Apr-10 22:31N 51°17' E 004°21'0 0.0
2014-Apr-10 21:31N 51°17' E 004°21'0 0.0
2014-Apr-10 20:31N 51°17' E 004°21'0 0.0
2014-Apr-10 19:24N 51°17' E 004°21'0 0.0
2014-Apr-10 18:30N 51°17' E 004°21'0 0.0
2014-Apr-10 17:29N 51°17' E 004°21'0 0.1
2014-Apr-10 16:33N 51°17' E 004°21'3 2.6
2014-Apr-10 15:31N 51°15' E 004°24'0 0.0
2014-Apr-10 14:33N 51°15' E 004°24'0 0.0
2014-Apr-10 13:33N 51°15' E 004°24'0 0.0
2014-Apr-10 12:33N 51°15' E 004°24'0 0.0
2014-Apr-10 11:32N 51°15' E 004°24'0 0.0
2014-Apr-10 10:32N 51°15' E 004°24'0 0.0
2014-Apr-10 09:31N 51°15' E 004°24'0 0.0
2014-Apr-10 08:31N 51°15' E 004°24'0 0.0
2014-Apr-10 07:33N 51°15' E 004°24'0 0.0
2014-Apr-10 06:33N 51°15' E 004°24'0 0.0
2014-Apr-10 05:32N 51°15' E 004°24'0 0.0
2014-Apr-10 04:32N 51°15' E 004°24'0 0.0
2014-Apr-10 03:32N 51°15' E 004°24'0 0.0
2014-Apr-10 02:31N 51°15' E 004°24'0 0.0
2014-Apr-10 01:31N 51°15' E 004°24'0 0.0
2014-Apr-10 00:33N 51°15' E 004°24'0 0.0
2014-Apr-09 23:33N 51°15' E 004°24'0 0.0
2014-Apr-09 22:33N 51°15' E 004°24'0 0.0
2014-Apr-09 21:32N 51°15' E 004°24'0 0.0
2014-Apr-09 20:31N 51°15' E 004°24'0 0.0
2014-Apr-09 19:31N 51°15' E 004°24'0 0.0
2014-Apr-09 18:31N 51°15' E 004°24'0 0.0
2014-Apr-09 17:24N 51°15' E 004°24'0 0.0
2014-Apr-09 16:33N 51°15' E 004°24'0 0.0
2014-Apr-09 15:32N 51°15' E 004°24'0 0.0
2014-Apr-09 14:32N 51°15' E 004°24'0 0.0
2014-Apr-09 13:32N 51°15' E 004°24'0 0.0
2014-Apr-09 12:33N 51°15' E 004°24'0 0.0
2014-Apr-09 11:31N 51°15' E 004°24'0 0.0
2014-Apr-09 10:33N 51°15' E 004°24'0 0.0
2014-Apr-09 09:33N 51°15' E 004°24'0 0.0
2014-Apr-09 08:32N 51°15' E 004°24'0 0.0
2014-Apr-09 07:31N 51°15' E 004°24'0 0.0
2014-Apr-09 06:31N 51°15' E 004°24'0 0.0
2014-Apr-09 05:33N 51°15' E 004°24'0 0.0
2014-Apr-09 04:33N 51°15' E 004°24'0 0.0
2014-Apr-09 03:32N 51°15' E 004°24'0 0.0
2014-Apr-09 02:32N 51°15' E 004°24'0 0.0
2014-Apr-09 01:31N 51°15' E 004°24'0 0.0
2014-Apr-09 00:31N 51°15' E 004°24'0 0.0
2014-Apr-08 23:31N 51°15' E 004°24'0 0.0
2014-Apr-08 22:33N 51°15' E 004°24'0 0.0
2014-Apr-08 21:33N 51°15' E 004°24'0 0.0
2014-Apr-08 20:32N 51°15' E 004°24'0 0.0
2014-Apr-08 19:32N 51°15' E 004°24'0 0.0
2014-Apr-08 18:28N 51°15' E 004°24'0 0.0
2014-Apr-08 17:31N 51°15' E 004°24'0 0.0
2014-Apr-08 16:31N 51°15' E 004°24'0 0.0
2014-Apr-08 15:33N 51°15' E 004°24'0 0.0
2014-Apr-08 14:33N 51°15' E 004°24'0 0.0
2014-Apr-08 13:32N 51°15' E 004°24'0 0.0
2014-Apr-08 12:32N 51°15' E 004°24'0 0.0
2014-Apr-08 11:31N 51°15' E 004°24'0 0.0
2014-Apr-08 10:31N 51°15' E 004°24'0 0.0
2014-Apr-08 09:31N 51°15' E 004°24'0 0.0
2014-Apr-08 08:33N 51°15' E 004°24'0 0.0
2014-Apr-08 07:33N 51°15' E 004°24'0 0.0
2014-Apr-08 06:32N 51°15' E 004°24'0 0.0
2014-Apr-08 05:32N 51°15' E 004°24'1 0.7
2014-Apr-08 04:33N 51°16' E 004°24'0 0.0
2014-Apr-08 03:32N 51°16' E 004°24'0 0.0
2014-Apr-08 02:32N 51°16' E 004°24'0 0.0
2014-Apr-08 01:32N 51°16' E 004°24'  

Dump ship's entire track history

sailing weather and tide predictions

Normed Antwerpen — V2DG9 — position and weather